createdAt,value
2022-08-26T00:01:38.795Z,101029.44
2022-08-26T00:04:06.103Z,101024.59
2022-08-26T00:06:33.518Z,101019.56
2022-08-26T00:09:00.769Z,101024.72
2022-08-26T00:11:27.953Z,101018.03
2022-08-26T00:13:57.092Z,101015.88
2022-08-26T00:16:27.284Z,101021.50
2022-08-26T00:18:54.967Z,101015.16
2022-08-26T00:21:22.370Z,101013.78
2022-08-26T00:23:50.436Z,101012.59
2022-08-26T00:26:17.201Z,101004.59
2022-08-26T00:28:44.660Z,101012.72
2022-08-26T00:31:11.677Z,101009.41
2022-08-26T00:33:39.981Z,101007.06
2022-08-26T00:36:07.548Z,101004.69
2022-08-26T00:38:37.929Z,101004.69
2022-08-26T00:41:06.369Z,101004.69
2022-08-26T00:43:46.152Z,100996.72
2022-08-26T00:46:21.849Z,100999.22
2022-08-26T00:48:54.481Z,100998.63
2022-08-26T00:51:24.923Z,100983.63
2022-08-26T00:54:10.810Z,100992.81
2022-08-26T00:56:41.659Z,100992.34
2022-08-26T00:59:11.953Z,100995.34
2022-08-26T01:01:42.014Z,100992.69
2022-08-26T01:04:10.227Z,101000.03
2022-08-26T01:06:39.386Z,100996.91
2022-08-26T01:09:06.523Z,100998.91
2022-08-26T01:11:34.189Z,101002.94
2022-08-26T01:14:04.937Z,100997.44
2022-08-26T01:16:33.415Z,100996.50
2022-08-26T01:19:10.313Z,101000.63
2022-08-26T01:21:59.910Z,101004.47
2022-08-26T01:24:29.342Z,100995.34
2022-08-26T01:27:01.679Z,100997.50
2022-08-26T01:29:30.386Z,101004.00
2022-08-26T01:31:57.913Z,100995.34
2022-08-26T01:34:32.836Z,100990.38
2022-08-26T01:37:05.818Z,100989.56
2022-08-26T01:39:35.574Z,100996.22
2022-08-26T01:42:04.345Z,100987.41
2022-08-26T01:45:10.155Z,100991.44
2022-08-26T01:47:38.738Z,100995.22
2022-08-26T01:50:27.457Z,100993.91
2022-08-26T01:52:57.064Z,100985.56
2022-08-26T01:55:29.290Z,100978.22
2022-08-26T01:58:04.696Z,100981.19
2022-08-26T02:00:34.324Z,100982.69
2022-08-26T02:03:18.014Z,100979.50
2022-08-26T02:05:51.401Z,100977.16
2022-08-26T02:08:24.751Z,100977.50
2022-08-26T02:10:54.846Z,100976.00
2022-08-26T02:13:23.417Z,100977.00
2022-08-26T02:15:52.318Z,100973.63
2022-08-26T02:18:19.552Z,100973.63
2022-08-26T02:20:46.345Z,100980.28
2022-08-26T02:23:13.325Z,100978.59
2022-08-26T02:26:04.467Z,100972.91
2022-08-26T02:28:36.193Z,100970.22
2022-08-26T02:31:03.594Z,100962.56
2022-08-26T02:33:31.725Z,100968.03
2022-08-26T02:35:58.689Z,100970.03
2022-08-26T02:38:26.186Z,100965.84
2022-08-26T02:40:52.862Z,100970.88
2022-08-26T02:43:19.616Z,100969.19
2022-08-26T02:46:00.806Z,100966.72
2022-08-26T02:48:28.869Z,100960.34
2022-08-26T02:50:55.604Z,100966.81
2022-08-26T02:53:25.482Z,100965.28
2022-08-26T02:55:52.531Z,100959.44
2022-08-26T02:58:19.450Z,100953.94
2022-08-26T03:00:52.814Z,100954.91
2022-08-26T03:03:22.518Z,100957.34
2022-08-26T03:05:50.893Z,100962.28
2022-08-26T03:08:17.878Z,100955.63
2022-08-26T03:10:44.593Z,100963.75
2022-08-26T03:13:11.573Z,100963.56
2022-08-26T03:15:39.192Z,100945.22
2022-08-26T03:18:06.722Z,100957.38
2022-08-26T03:20:34.456Z,100946.38
2022-08-26T03:23:01.391Z,100942.19
2022-08-26T03:25:28.801Z,100944.31
2022-08-26T03:27:55.714Z,100949.63
2022-08-26T03:30:44.613Z,100940.75
2022-08-26T03:33:14.105Z,100937.97
2022-08-26T03:35:43.584Z,100940.75
2022-08-26T03:38:11.182Z,100935.06
2022-08-26T03:40:39.050Z,100937.44
2022-08-26T03:43:09.873Z,100939.25
2022-08-26T03:45:37.122Z,100934.25
2022-08-26T03:48:04.699Z,100933.06
2022-08-26T03:50:34.322Z,100930.69
2022-08-26T03:53:04.051Z,100936.31
2022-08-26T03:55:32.498Z,100933.50
2022-08-26T03:58:00.804Z,100927.50
2022-08-26T04:00:27.825Z,100931.84
2022-08-26T04:02:54.877Z,100928.66
2022-08-26T04:05:22.842Z,100928.34
2022-08-26T04:07:50.483Z,100927.81
2022-08-26T04:10:19.443Z,100930.47
2022-08-26T04:12:47.804Z,100924.47
2022-08-26T04:15:16.044Z,100928.00
2022-08-26T04:17:44.888Z,100924.06
2022-08-26T04:20:16.216Z,100926.06
2022-08-26T04:22:43.176Z,100926.34
2022-08-26T04:25:11.410Z,100925.38
2022-08-26T04:27:38.684Z,100925.09
2022-08-26T04:30:08.926Z,100916.59
2022-08-26T04:32:36.494Z,100921.41
2022-08-26T04:35:03.614Z,100923.81
2022-08-26T04:37:31.980Z,100915.13
2022-08-26T04:39:59.892Z,100920.59
2022-08-26T04:42:27.759Z,100925.31
2022-08-26T04:44:55.705Z,100934.38
2022-08-26T04:47:22.342Z,100916.47
2022-08-26T04:49:48.997Z,100914.16
2022-08-26T04:52:17.145Z,100923.53
2022-08-26T04:54:43.893Z,100925.06
2022-08-26T04:57:11.106Z,100920.94
2022-08-26T04:59:39.482Z,100927.00
2022-08-26T05:02:07.289Z,100931.50
2022-08-26T05:04:34.639Z,100926.38
2022-08-26T05:07:02.716Z,100933.28
2022-08-26T05:09:29.808Z,100930.31
2022-08-26T05:11:57.468Z,100933.69
2022-08-26T05:14:24.483Z,100938.91
2022-08-26T05:16:52.162Z,100941.75
2022-08-26T05:19:19.579Z,100935.59
2022-08-26T05:21:48.770Z,100941.13
2022-08-26T05:24:16.780Z,100951.78
2022-08-26T05:26:44.864Z,100952.50
2022-08-26T05:29:12.049Z,100946.19
2022-08-26T05:31:38.869Z,100944.38
2022-08-26T05:34:06.383Z,100957.72
2022-08-26T05:36:35.469Z,100954.84
2022-08-26T05:39:04.710Z,100955.34
2022-08-26T05:41:36.397Z,100956.88
2022-08-26T05:44:06.238Z,100953.53
2022-08-26T05:46:34.708Z,100951.03
2022-08-26T05:49:03.024Z,100949.88
2022-08-26T05:51:30.977Z,100949.53
2022-08-26T05:53:58.774Z,100940.84
2022-08-26T05:56:27.631Z,100936.31
2022-08-26T05:58:56.515Z,100946.94
2022-08-26T06:01:28.200Z,100948.88
2022-08-26T06:03:59.715Z,100946.81
2022-08-26T06:06:31.956Z,100946.59
2022-08-26T06:09:00.148Z,100939.41
2022-08-26T06:11:29.129Z,100958.47
2022-08-26T06:14:03.106Z,100957.34
2022-08-26T06:16:32.597Z,100952.69
2022-08-26T06:19:03.147Z,100948.31
2022-08-26T06:21:35.757Z,100946.97
2022-08-26T06:24:45.771Z,100950.63
2022-08-26T06:27:15.202Z,100951.59
2022-08-26T06:29:42.646Z,100952.69
2022-08-26T06:32:09.328Z,100953.34
2022-08-26T06:34:36.315Z,100948.84
2022-08-26T06:37:03.485Z,100945.69
2022-08-26T06:39:31.613Z,100951.03
2022-08-26T06:42:03.020Z,100945.34
2022-08-26T06:44:29.962Z,100947.75
2022-08-26T06:46:56.649Z,100957.88
2022-08-26T06:49:26.542Z,100948.22
2022-08-26T06:51:55.286Z,100951.81
2022-08-26T06:54:22.479Z,100949.94
2022-08-26T06:56:49.586Z,100947.22
2022-08-26T06:59:16.570Z,100953.19
2022-08-26T07:01:45.194Z,100945.50
2022-08-26T07:04:15.648Z,100958.50
2022-08-26T07:06:47.284Z,100949.50
2022-08-26T07:09:14.017Z,100954.28
2022-08-26T07:11:41.349Z,100937.63
2022-08-26T07:14:09.094Z,100943.13
2022-08-26T07:16:35.945Z,100938.09
2022-08-26T07:19:03.633Z,100949.88
2022-08-26T07:21:40.440Z,100945.41
2022-08-26T07:24:08.620Z,100943.69
2022-08-26T07:26:37.804Z,100942.41
2022-08-26T07:29:04.789Z,100938.38
2022-08-26T07:31:39.469Z,100932.78
2022-08-26T07:34:10.834Z,100924.78
2022-08-26T07:36:37.750Z,100927.19
2022-08-26T07:39:05.501Z,100931.34
2022-08-26T07:41:32.300Z,100929.50
2022-08-26T07:43:59.414Z,100926.03
2022-08-26T07:46:30.081Z,100927.31
2022-08-26T07:48:58.135Z,100929.38
2022-08-26T07:51:25.598Z,100925.56
2022-08-26T07:53:53.359Z,100928.94
2022-08-26T07:56:23.403Z,100922.78
2022-08-26T07:58:53.840Z,100929.00
2022-08-26T08:01:23.861Z,100918.44
2022-08-26T08:03:51.828Z,100924.19
2022-08-26T08:06:21.318Z,100917.50
2022-08-26T08:08:50.742Z,100915.59
2022-08-26T08:11:22.257Z,100919.69
2022-08-26T08:13:55.934Z,100917.47
2022-08-26T08:16:26.984Z,100917.50
2022-08-26T08:18:56.560Z,100919.78
2022-08-26T08:21:25.366Z,100915.75
2022-08-26T08:23:54.557Z,100929.41
2022-08-26T08:26:22.020Z,100919.66
2022-08-26T08:28:49.480Z,100926.72
2022-08-26T08:31:54.334Z,100913.69
2022-08-26T08:34:11.342Z,100911.81
2022-08-26T08:36:38.499Z,100909.19
2022-08-26T08:39:06.368Z,100905.31
2022-08-26T08:42:27.006Z,100894.66
2022-08-26T08:44:58.878Z,100892.84
2022-08-26T08:47:59.362Z,100905.06
2022-08-26T08:50:35.702Z,100913.03
2022-08-26T08:53:09.985Z,100896.06
2022-08-26T08:55:48.132Z,100894.28
2022-08-26T08:58:22.546Z,100895.16
2022-08-26T09:01:02.553Z,100885.78
2022-08-26T09:03:42.514Z,100883.50
2022-08-26T09:06:17.289Z,100876.69
2022-08-26T09:08:47.022Z,100881.44
2022-08-26T09:11:17.721Z,100885.50
2022-08-26T09:13:49.122Z,100883.41
2022-08-26T09:16:25.489Z,100890.16
2022-08-26T09:19:30.082Z,100889.22
2022-08-26T09:21:59.270Z,100891.38
2022-08-26T09:24:28.624Z,100887.91
2022-08-26T09:26:57.829Z,100890.47
2022-08-26T09:29:28.637Z,100891.31
2022-08-26T09:32:21.330Z,100883.44
2022-08-26T09:35:11.320Z,100875.38
2022-08-26T09:40:34.858Z,100883.31
2022-08-26T09:43:23.099Z,100866.31
2022-08-26T09:45:59.557Z,100871.56
2022-08-26T09:48:37.790Z,100872.03
2022-08-26T09:51:28.267Z,100860.06
2022-08-26T09:54:00.841Z,100856.22
2022-08-26T09:56:39.983Z,100854.88
2022-08-26T09:59:11.153Z,100839.38
2022-08-26T10:01:43.950Z,100837.19
2022-08-26T10:04:15.156Z,100828.63
2022-08-26T10:06:54.901Z,100823.84
2022-08-26T10:09:23.965Z,100819.03
2022-08-26T10:11:55.360Z,100816.06
2022-08-26T10:14:28.113Z,100801.06
2022-08-26T10:17:21.847Z,100801.09
2022-08-26T10:19:57.847Z,100790.91
2022-08-26T10:22:39.747Z,100785.47
2022-08-26T10:25:11.989Z,100782.91
2022-08-26T10:28:18.108Z,100790.91
2022-08-26T10:30:51.252Z,100793.06
2022-08-26T10:33:18.957Z,100787.75
2022-08-26T10:35:58.558Z,100784.06
2022-08-26T10:38:32.364Z,100779.66
2022-08-26T10:41:16.784Z,100778.22
2022-08-26T10:43:53.754Z,100768.72
2022-08-26T10:46:27.280Z,100760.31
2022-08-26T10:48:54.295Z,100750.13
2022-08-26T10:51:27.147Z,100736.84
2022-08-26T10:54:22.000Z,100745.19
2022-08-26T10:56:53.589Z,100739.69
2022-08-26T10:59:50.493Z,100743.91
2022-08-26T11:02:31.484Z,100738.22
2022-08-26T11:05:05.660Z,100738.28
2022-08-26T11:07:47.414Z,100729.69
2022-08-26T11:10:19.276Z,100730.63
2022-08-26T11:12:49.499Z,100731.38
2022-08-26T11:15:26.490Z,100745.31
2022-08-26T11:17:53.255Z,100736.19
2022-08-26T11:20:23.822Z,100734.22
2022-08-26T11:22:51.960Z,100716.50
2022-08-26T11:25:19.797Z,100712.38
2022-08-26T11:27:52.462Z,100712.84
2022-08-26T11:30:20.267Z,100710.53
2022-08-26T11:32:57.354Z,100693.50
2022-08-26T11:35:24.656Z,100703.63
2022-08-26T11:37:55.607Z,100697.44
2022-08-26T11:40:32.360Z,100694.38
2022-08-26T11:43:09.016Z,100709.59
2022-08-26T11:45:47.651Z,100734.03
2022-08-26T11:48:31.018Z,100722.97
2022-08-26T11:50:59.095Z,100736.41
2022-08-26T11:53:27.697Z,100742.75
2022-08-26T11:55:59.505Z,100748.31
2022-08-26T11:58:28.464Z,100756.34
2022-08-26T12:01:09.908Z,100751.09
2022-08-26T12:03:50.765Z,100769.50
2022-08-26T12:06:29.607Z,100758.72
2022-08-26T12:09:01.495Z,100759.13
2022-08-26T12:11:35.156Z,100744.09
2022-08-26T12:14:08.222Z,100737.47
2022-08-26T12:16:39.405Z,100751.78
2022-08-26T12:19:26.354Z,100756.59
2022-08-26T12:22:00.516Z,100754.09
2022-08-26T12:24:27.695Z,100757.00
2022-08-26T12:27:31.333Z,100754.28
2022-08-26T12:30:08.410Z,100777.09
2022-08-26T12:32:39.123Z,100789.91
2022-08-26T12:35:23.992Z,100808.47
2022-08-26T12:37:54.084Z,100812.28
2022-08-26T12:40:43.274Z,100809.03
2022-08-26T12:43:11.901Z,100803.25
2022-08-26T12:46:02.258Z,100799.84
2022-08-26T12:48:35.328Z,100799.31
2022-08-26T12:51:04.021Z,100796.00
2022-08-26T12:53:33.549Z,100795.38
2022-08-26T12:56:06.197Z,100806.38
2022-08-26T12:58:36.020Z,100796.34
2022-08-26T13:01:09.018Z,100790.50
2022-08-26T13:03:43.582Z,100790.72
2022-08-26T13:06:22.902Z,100790.16
2022-08-26T13:09:06.982Z,100783.03
2022-08-26T13:12:02.241Z,100803.28
2022-08-26T13:14:33.182Z,100802.59
2022-08-26T13:17:03.306Z,100805.50
2022-08-26T13:19:33.128Z,100797.31
2022-08-26T13:22:06.265Z,100796.88
2022-08-26T13:24:36.736Z,100775.75
2022-08-26T13:27:12.043Z,100767.94
2022-08-26T13:29:39.422Z,100765.78
2022-08-26T13:32:08.238Z,100783.19
2022-08-26T13:34:40.338Z,100801.69
2022-08-26T13:37:11.636Z,100794.06
2022-08-26T13:39:42.389Z,100782.41
2022-08-26T13:42:09.824Z,100766.31
2022-08-26T13:44:41.213Z,100770.00
2022-08-26T13:47:15.994Z,100753.00
2022-08-26T13:49:49.389Z,100740.56
2022-08-26T13:52:30.168Z,100742.75
2022-08-26T13:55:04.109Z,100730.94
2022-08-26T13:57:32.766Z,100763.00
2022-08-26T14:00:00.010Z,100784.94
2022-08-26T14:02:33.048Z,100812.31
2022-08-26T14:05:00.027Z,100826.91
2022-08-26T14:07:38.272Z,100841.72
2022-08-26T14:10:08.359Z,100878.25
2022-08-26T14:12:35.422Z,100885.22
2022-08-26T14:15:05.617Z,100880.53
2022-08-26T14:17:34.961Z,100853.72
2022-08-26T14:20:02.535Z,100834.75
2022-08-26T14:22:32.328Z,100835.69
2022-08-26T14:25:00.891Z,100858.72
2022-08-26T14:27:30.623Z,100882.56
2022-08-26T14:29:57.482Z,100880.53
2022-08-26T14:32:31.645Z,100853.78
2022-08-26T14:34:58.552Z,100828.63
2022-08-26T14:37:27.975Z,100793.44
2022-08-26T14:39:56.303Z,100760.91
2022-08-26T14:42:31.420Z,100740.53
2022-08-26T14:45:02.171Z,100739.56
2022-08-26T14:47:29.159Z,100705.50
2022-08-26T14:49:55.834Z,100706.16
2022-08-26T14:52:22.589Z,100692.06
2022-08-26T14:54:49.259Z,100688.41
2022-08-26T14:57:21.697Z,100689.72
2022-08-26T14:59:50.461Z,100692.22
2022-08-26T15:02:32.751Z,100690.03
2022-08-26T15:05:02.119Z,100696.38
2022-08-26T15:07:28.780Z,100690.06
2022-08-26T15:09:55.399Z,100671.31
2022-08-26T15:12:22.691Z,100653.56
2022-08-26T15:14:49.332Z,100633.50
2022-08-26T15:17:16.004Z,100623.38
2022-08-26T15:19:42.644Z,100625.06
2022-08-26T15:22:09.306Z,100627.53
2022-08-26T15:24:36.376Z,100622.22
2022-08-26T15:27:03.068Z,100623.56
2022-08-26T15:29:29.890Z,100626.19
2022-08-26T15:31:58.241Z,100619.88
2022-08-26T15:34:25.042Z,100623.22
2022-08-26T15:36:51.685Z,100630.03
2022-08-26T15:39:19.472Z,100622.06
2022-08-26T15:41:46.810Z,100611.75
2022-08-26T15:44:14.321Z,100605.94
2022-08-26T15:46:41.300Z,100596.81
2022-08-26T15:49:08.208Z,100595.81
2022-08-26T15:51:45.763Z,100592.50
2022-08-26T15:54:14.002Z,100582.69
2022-08-26T15:56:40.745Z,100589.34
2022-08-26T15:59:08.115Z,100582.69
2022-08-26T16:01:35.792Z,100590.66
2022-08-26T16:04:03.430Z,100583.34
2022-08-26T16:06:33.275Z,100586.00
2022-08-26T16:09:00.235Z,100593.66
2022-08-26T16:11:28.049Z,100599.97
2022-08-26T16:13:55.385Z,100599.31
2022-08-26T16:16:22.392Z,100600.28
2022-08-26T16:18:49.642Z,100593.31
2022-08-26T16:21:23.167Z,100610.75
2022-08-26T16:23:50.408Z,100617.91
2022-08-26T16:26:26.019Z,100615.72
2022-08-26T16:28:53.750Z,100623.22
2022-08-26T16:31:21.595Z,100623.56
2022-08-26T16:33:48.691Z,100627.03
2022-08-26T16:36:16.331Z,100636.34
2022-08-26T16:38:50.087Z,100638.13
2022-08-26T16:41:17.700Z,100647.63
2022-08-26T16:43:44.539Z,100649.47
2022-08-26T16:46:14.095Z,100650.94
2022-08-26T16:48:40.904Z,100652.13
2022-08-26T16:51:13.673Z,100644.31
2022-08-26T16:53:40.329Z,100637.81
2022-08-26T16:56:07.304Z,100641.50
2022-08-26T16:58:34.120Z,100646.09
2022-08-26T17:01:01.277Z,100643.81
2022-08-26T17:03:28.037Z,100654.28
2022-08-26T17:05:54.682Z,100670.84
2022-08-26T17:08:24.256Z,100678.50
2022-08-26T17:10:55.745Z,100684.44
2022-08-26T17:13:25.986Z,100692.59
2022-08-26T17:16:04.210Z,100691.44
2022-08-26T17:18:31.596Z,100696.09
2022-08-26T17:21:02.672Z,100688.94
2022-08-26T17:23:29.457Z,100693.94
2022-08-26T17:25:56.086Z,100682.81
2022-08-26T17:28:22.911Z,100680.97
2022-08-26T17:30:49.650Z,100667.69
2022-08-26T17:33:17.161Z,100660.03
2022-08-26T17:35:48.872Z,100665.19
2022-08-26T17:38:15.507Z,100657.06
2022-08-26T17:40:42.177Z,100655.56
2022-08-26T17:43:12.232Z,100650.44
2022-08-26T17:45:40.530Z,100651.41
2022-08-26T17:48:08.145Z,100657.72
2022-08-26T17:50:35.364Z,100647.94
2022-08-26T17:53:02.054Z,100649.91
2022-08-26T17:55:29.213Z,100645.44
2022-08-26T17:57:55.888Z,100644.59
2022-08-26T18:00:26.478Z,100641.09
2022-08-26T18:02:54.880Z,100646.75
2022-08-26T18:05:22.329Z,100639.09
2022-08-26T18:07:49.035Z,100651.72
2022-08-26T18:10:18.475Z,100644.06
2022-08-26T18:12:45.667Z,100646.06
2022-08-26T18:15:14.463Z,100644.53
2022-08-26T18:17:41.849Z,100634.28
2022-08-26T18:20:11.573Z,100629.78
2022-08-26T18:22:38.276Z,100632.44
2022-08-26T18:25:07.737Z,100640.41
2022-08-26T18:27:36.174Z,100645.88
2022-08-26T18:30:06.633Z,100641.22
2022-08-26T18:32:33.284Z,100641.88
2022-08-26T18:34:59.980Z,100633.56
2022-08-26T18:37:29.477Z,100631.22
2022-08-26T18:39:59.591Z,100617.44
2022-08-26T18:42:27.275Z,100623.56
2022-08-26T18:44:53.964Z,100619.44
2022-08-26T18:47:20.875Z,100623.78
2022-08-26T18:49:48.610Z,100613.97
2022-08-26T18:52:15.538Z,100614.44
2022-08-26T18:54:42.411Z,100601.16
2022-08-26T18:57:09.255Z,100601.31
2022-08-26T18:59:35.916Z,100603.81
2022-08-26T19:02:02.749Z,100600.69
2022-08-26T19:04:29.650Z,100607.84
2022-08-26T19:06:56.888Z,100621.94
2022-08-26T19:09:26.316Z,100625.91
2022-08-26T19:11:53.827Z,100630.91
2022-08-26T19:14:20.540Z,100641.34
2022-08-26T19:16:49.086Z,100644.00
2022-08-26T19:19:16.233Z,100645.81
2022-08-26T19:21:43.287Z,100661.91
2022-08-26T19:24:15.459Z,100669.72
2022-08-26T19:26:44.397Z,100677.00
2022-08-26T19:29:11.844Z,100686.47
2022-08-26T19:31:38.485Z,100688.16
2022-08-26T19:34:05.852Z,100684.69
2022-08-26T19:36:33.112Z,100692.13
2022-08-26T19:39:03.017Z,100696.78
2022-08-26T19:41:37.408Z,100692.94
2022-08-26T19:44:34.803Z,100693.81
2022-08-26T19:47:03.579Z,100702.75
2022-08-26T19:49:31.028Z,100702.59
2022-08-26T19:51:58.133Z,100704.94
2022-08-26T19:54:25.554Z,100703.31
2022-08-26T19:56:52.228Z,100703.16
2022-08-26T19:59:18.933Z,100690.22
2022-08-26T20:01:45.624Z,100695.34
2022-08-26T20:04:12.532Z,100690.03
2022-08-26T20:06:39.804Z,100691.53
2022-08-26T20:09:06.765Z,100702.78
2022-08-26T20:11:33.516Z,100689.69
2022-08-26T20:14:00.473Z,100697.81
2022-08-26T20:16:27.202Z,100694.63
2022-08-26T20:19:29.256Z,100693.09
2022-08-26T20:21:55.923Z,100693.75
2022-08-26T20:24:27.260Z,100696.88
2022-08-26T20:26:54.181Z,100699.53
2022-08-26T20:29:21.611Z,100698.19
2022-08-26T20:31:49.215Z,100691.91
2022-08-26T20:34:18.686Z,100690.09
2022-08-26T20:36:47.563Z,100701.69
2022-08-26T20:39:15.269Z,100710.91
2022-08-26T20:41:43.966Z,100706.44
2022-08-26T20:44:10.623Z,100708.72
2022-08-26T20:46:37.580Z,100712.25
2022-08-26T20:49:05.900Z,100717.53
2022-08-26T20:51:35.307Z,100710.41
2022-08-26T20:54:02.124Z,100716.69
2022-08-26T20:56:28.822Z,100719.03
2022-08-26T20:58:58.771Z,100719.03
2022-08-26T21:01:30.568Z,100717.22
2022-08-26T21:03:57.701Z,100726.03
2022-08-26T21:06:24.960Z,100714.75
2022-08-26T21:08:51.882Z,100719.84
2022-08-26T21:11:19.830Z,100723.97
2022-08-26T21:16:36.229Z,100719.84
2022-08-26T21:19:08.139Z,100717.19
2022-08-26T21:21:35.424Z,100713.19
2022-08-26T21:24:03.114Z,100715.13
2022-08-26T21:26:30.266Z,100699.34
2022-08-26T21:28:57.002Z,100702.50
2022-08-26T21:31:25.300Z,100698.03
2022-08-26T21:33:52.776Z,100695.00
2022-08-26T21:36:20.399Z,100698.53
2022-08-26T21:38:47.290Z,100695.53
2022-08-26T21:41:24.426Z,100701.34
2022-08-26T21:43:55.310Z,100699.22
2022-08-26T21:46:23.852Z,100699.91
2022-08-26T21:49:02.745Z,100700.75
2022-08-26T21:51:32.919Z,100695.28
2022-08-26T21:54:01.456Z,100700.59
2022-08-26T21:56:31.658Z,100710.88
2022-08-26T21:58:59.733Z,100718.81
2022-08-26T22:01:32.648Z,100720.34
2022-08-26T22:03:59.472Z,100723.00
2022-08-26T22:06:27.863Z,100704.44
2022-08-26T22:08:55.338Z,100710.41
2022-08-26T22:11:22.947Z,100721.53
2022-08-26T22:13:50.846Z,100716.53
2022-08-26T22:16:19.254Z,100717.38
2022-08-26T22:18:46.375Z,100712.28
2022-08-26T22:21:19.809Z,100701.97
2022-08-26T22:23:47.116Z,100695.00
2022-08-26T22:26:25.387Z,100682.69
2022-08-26T22:28:55.578Z,100693.97
2022-08-26T22:31:28.161Z,100688.66
2022-08-26T22:34:06.472Z,100683.34
2022-08-26T22:36:35.030Z,100676.88
2022-08-26T22:39:04.843Z,100666.28
2022-08-26T22:41:32.622Z,100652.84
2022-08-26T22:44:02.769Z,100651.19
2022-08-26T22:46:30.130Z,100638.59
2022-08-26T22:48:56.904Z,100631.97
2022-08-26T22:51:23.704Z,100628.94
2022-08-26T22:53:50.481Z,100630.94
2022-08-26T22:56:19.167Z,100632.13
2022-08-26T22:58:46.089Z,100614.81
2022-08-26T23:01:13.461Z,100613.69
2022-08-26T23:03:40.338Z,100607.97
2022-08-26T23:06:10.216Z,100603.28
2022-08-26T23:08:38.603Z,100609.06
2022-08-26T23:11:10.350Z,100612.66
2022-08-26T23:13:38.054Z,100606.19
2022-08-26T23:16:09.384Z,100615.94
2022-08-26T23:18:36.758Z,100615.78
2022-08-26T23:21:03.760Z,100610.13
2022-08-26T23:23:31.192Z,100625.06
2022-08-26T23:25:58.450Z,100629.19
2022-08-26T23:28:26.509Z,100631.31
2022-08-26T23:30:53.972Z,100623.38
2022-08-26T23:33:20.983Z,100634.78
2022-08-26T23:35:47.728Z,100628.97
2022-08-26T23:38:15.011Z,100641.06
2022-08-26T23:40:42.019Z,100652.69
2022-08-26T23:43:14.414Z,100655.66
2022-08-26T23:45:41.227Z,100646.34
2022-08-26T23:48:08.022Z,100646.50
2022-08-26T23:50:53.419Z,100653.09
2022-08-26T23:53:22.500Z,100640.19
2022-08-26T23:55:52.035Z,100637.91
2022-08-26T23:58:20.439Z,100640.41
